createdAt,value
2018-06-22T00:00:35.046Z,62.52
2018-06-22T00:01:15.608Z,62.62
2018-06-22T00:01:56.176Z,62.81
2018-06-22T00:02:36.716Z,62.71
2018-06-22T00:03:17.274Z,62.81
2018-06-22T00:03:57.846Z,62.52
2018-06-22T00:04:38.417Z,63
2018-06-22T00:05:18.970Z,62.52
2018-06-22T00:05:59.502Z,62.14
2018-06-22T00:06:40.099Z,62.14
2018-06-22T00:07:20.656Z,62.43
2018-06-22T00:08:01.217Z,62.04
2018-06-22T00:08:41.797Z,61.95
2018-06-22T00:09:22.352Z,62.14
2018-06-22T00:10:02.946Z,62.24
2018-06-22T00:10:43.481Z,62.52
2018-06-22T00:11:24.034Z,62.81
2018-06-22T00:12:04.580Z,62.81
2018-06-22T00:12:45.115Z,63.39
2018-06-22T00:13:25.671Z,63.1
2018-06-22T00:14:06.275Z,63.19
2018-06-22T00:14:46.835Z,62.71
2018-06-22T00:15:27.412Z,62.81
2018-06-22T00:16:07.987Z,62.81
2018-06-22T00:16:48.569Z,62.71
2018-06-22T00:17:29.149Z,63.39
2018-06-22T00:18:09.706Z,63.19
2018-06-22T00:18:50.268Z,63.29
2018-06-22T00:19:30.827Z,63.1
2018-06-22T00:20:11.438Z,63.1
2018-06-22T00:20:51.983Z,63.19
2018-06-22T00:21:32.555Z,63.19
2018-06-22T00:22:13.102Z,63.1
2018-06-22T00:22:53.678Z,63.1
2018-06-22T00:23:34.240Z,63.39
2018-06-22T00:24:14.826Z,62.71
2018-06-22T00:24:55.392Z,62.81
2018-06-22T00:25:35.938Z,62.62
2018-06-22T00:26:16.529Z,63
2018-06-22T00:26:57.040Z,63.48
2018-06-22T00:27:37.594Z,63
2018-06-22T00:28:18.146Z,63.29
2018-06-22T00:28:58.713Z,63.1
2018-06-22T00:29:39.298Z,63.1
2018-06-22T00:30:19.841Z,63.1
2018-06-22T00:31:00.418Z,63.39
2018-06-22T00:31:40.974Z,63.57
2018-06-22T00:32:21.541Z,63.1
2018-06-22T00:33:02.095Z,63.48
2018-06-22T00:33:42.703Z,63.19
2018-06-22T00:34:23.270Z,63.19
2018-06-22T00:35:03.816Z,63.19
2018-06-22T00:35:44.369Z,63.48
2018-06-22T00:36:24.928Z,63.29
2018-06-22T00:37:05.507Z,63.76
2018-06-22T00:37:46.059Z,63.76
2018-06-22T00:38:26.624Z,63.86
2018-06-22T00:39:07.183Z,63.86
2018-06-22T00:39:47.739Z,63.96
2018-06-22T00:40:28.324Z,63.29
2018-06-22T00:41:08.872Z,63.48
2018-06-22T00:41:49.436Z,63.57
2018-06-22T00:42:29.998Z,63.19
2018-06-22T00:43:10.580Z,63.39
2018-06-22T00:43:51.134Z,63.76
2018-06-22T00:44:31.695Z,63.67
2018-06-22T00:45:12.256Z,63.67
2018-06-22T00:45:52.840Z,64.05
2018-06-22T00:46:33.379Z,63.48
2018-06-22T00:47:13.942Z,63.29
2018-06-22T00:47:54.516Z,63
2018-06-22T00:48:35.075Z,63.86
2018-06-22T00:49:15.640Z,63.76
2018-06-22T00:49:56.196Z,63.76
2018-06-22T00:50:36.810Z,64.05
2018-06-22T00:51:17.367Z,63.96
2018-06-22T00:51:57.919Z,63.86
2018-06-22T00:52:38.503Z,63.29
2018-06-22T00:53:19.064Z,63.29
2018-06-22T00:53:59.625Z,63.19
2018-06-22T00:54:40.182Z,63
2018-06-22T00:55:20.753Z,63.39
2018-06-22T00:56:01.317Z,63.48
2018-06-22T00:56:41.862Z,63.86
2018-06-22T00:57:22.424Z,63.67
2018-06-22T00:58:02.980Z,63.76
2018-06-22T00:58:43.556Z,63.76
2018-06-22T00:59:24.107Z,64.05
2018-06-22T01:00:04.679Z,64.25
2018-06-22T01:00:45.270Z,63.96
2018-06-22T01:01:25.823Z,63.86
2018-06-22T01:02:06.375Z,63.86
2018-06-22T01:02:46.909Z,63.67
2018-06-22T01:03:27.474Z,63.86
2018-06-22T01:04:08.049Z,64.05
2018-06-22T01:04:48.603Z,63.48
2018-06-22T01:05:29.155Z,63.57
2018-06-22T01:06:09.705Z,63.96
2018-06-22T01:06:50.247Z,63.48
2018-06-22T01:07:30.809Z,63.48
2018-06-22T01:08:11.362Z,63.96
2018-06-22T01:08:51.920Z,63.86
2018-06-22T01:09:32.490Z,63.86
2018-06-22T01:10:13.183Z,64.34
2018-06-22T01:10:53.742Z,63.86
2018-06-22T01:11:34.311Z,64.34
2018-06-22T01:12:14.866Z,64.34
2018-06-22T01:12:55.464Z,63.96
2018-06-22T01:13:36.027Z,64.15
2018-06-22T01:14:16.593Z,64.15
2018-06-22T01:14:57.174Z,64.25
2018-06-22T01:15:37.712Z,64.22
2018-06-22T01:16:18.267Z,64.22
2018-06-22T01:16:58.823Z,64.25
2018-06-22T01:17:39.370Z,64.31
2018-06-22T01:18:19.945Z,64.22
2018-06-22T01:19:00.533Z,64.59
2018-06-22T01:19:41.078Z,64.88
2018-06-22T01:20:21.645Z,64.69
2018-06-22T01:21:02.213Z,64.69
2018-06-22T01:21:42.779Z,64.59
2018-06-22T01:22:23.397Z,64.69
2018-06-22T01:23:03.892Z,65.45
2018-06-22T01:23:44.445Z,64.5
2018-06-22T01:24:25.006Z,64.59
2018-06-22T01:25:05.569Z,64.78
2018-06-22T01:25:46.136Z,64.88
2018-06-22T01:26:26.709Z,64.59
2018-06-22T01:27:07.268Z,64.78
2018-06-22T01:27:47.835Z,64.69
2018-06-22T01:28:28.378Z,65.26
2018-06-22T01:29:08.946Z,65.17
2018-06-22T01:29:49.564Z,65.45
2018-06-22T01:30:30.109Z,65.74
2018-06-22T01:31:10.666Z,65.74
2018-06-22T01:31:51.215Z,65.64
2018-06-22T01:32:31.792Z,65.17
2018-06-22T01:33:12.350Z,65.26
2018-06-22T01:33:52.909Z,65.36
2018-06-22T01:34:33.445Z,64.88
2018-06-22T01:35:14.011Z,64.88
2018-06-22T01:35:54.550Z,65.07
2018-06-22T01:36:35.120Z,65.36
2018-06-22T01:37:15.681Z,65.17
2018-06-22T01:37:56.242Z,65.74
2018-06-22T01:38:36.797Z,65.55
2018-06-22T01:39:17.356Z,65.74
2018-06-22T01:39:57.923Z,64.98
2018-06-22T01:40:38.475Z,65.26
2018-06-22T01:41:19.038Z,65.55
2018-06-22T01:41:59.589Z,65.55
2018-06-22T01:42:40.141Z,65.55
2018-06-22T01:43:20.691Z,65.64
2018-06-22T01:44:01.252Z,65.64
2018-06-22T01:44:41.816Z,65.93
2018-06-22T01:45:22.384Z,65.93
2018-06-22T01:46:02.946Z,66.13
2018-06-22T01:46:43.496Z,66.31
2018-06-22T01:47:24.058Z,66.31
2018-06-22T01:48:04.659Z,66.03
2018-06-22T01:48:45.212Z,66.13
2018-06-22T01:49:25.773Z,66.13
2018-06-22T01:50:06.330Z,65.84
2018-06-22T01:50:46.892Z,65.84
2018-06-22T01:51:27.454Z,66.03
2018-06-22T01:52:08.017Z,65.93
2018-06-22T01:52:48.575Z,66.22
2018-06-22T01:53:29.137Z,65.84
2018-06-22T01:54:09.705Z,66.79
2018-06-22T01:54:50.265Z,66.6
2018-06-22T01:55:30.818Z,66.22
2018-06-22T01:56:11.366Z,66.22
2018-06-22T01:56:51.909Z,66.13
2018-06-22T01:57:32.466Z,66.13
2018-06-22T01:58:13.007Z,66.03
2018-06-22T01:58:53.570Z,66.31
2018-06-22T01:59:34.189Z,65.64
2018-06-22T02:00:14.723Z,65.36
2018-06-22T02:00:55.324Z,65.64
2018-06-22T02:01:35.886Z,65.84
2018-06-22T02:02:16.452Z,65.84
2018-06-22T02:02:57.025Z,66.6
2018-06-22T02:03:37.569Z,66.22
2018-06-22T02:04:18.128Z,66.13
2018-06-22T02:04:58.687Z,66.22
2018-06-22T02:05:39.254Z,66.03
2018-06-22T02:06:19.803Z,66.13
2018-06-22T02:07:00.397Z,66.31
2018-06-22T02:07:40.943Z,66.22
2018-06-22T02:08:21.501Z,66.22
2018-06-22T02:09:02.058Z,66.6
2018-06-22T02:09:42.622Z,66.7
2018-06-22T02:10:23.173Z,66.03
2018-06-22T02:11:03.734Z,66.03
2018-06-22T02:11:44.313Z,66.41
2018-06-22T02:12:24.884Z,66.6
2018-06-22T02:13:05.453Z,66.79
2018-06-22T02:13:46.026Z,66.41
2018-06-22T02:14:26.568Z,66.6
2018-06-22T02:15:07.136Z,66.31
2018-06-22T02:15:47.706Z,66.31
2018-06-22T02:16:28.260Z,66.31
2018-06-22T02:17:08.818Z,66.22
2018-06-22T02:17:49.365Z,66.13
2018-06-22T02:18:30.040Z,66.03
2018-06-22T02:19:10.587Z,65.93
2018-06-22T02:19:51.137Z,66.6
2018-06-22T02:20:31.690Z,66.6
2018-06-22T02:21:12.255Z,65.84
2018-06-22T02:21:52.822Z,66.22
2018-06-22T02:22:33.372Z,66.13
2018-06-22T02:23:13.946Z,66.31
2018-06-22T02:23:54.510Z,66.03
2018-06-22T02:24:35.154Z,66.41
2018-06-22T02:25:15.804Z,66.31
2018-06-22T02:25:56.297Z,66.22
2018-06-22T02:26:36.853Z,66.13
2018-06-22T02:27:17.411Z,65.93
2018-06-22T02:27:57.963Z,65.93
2018-06-22T02:28:38.531Z,66.22
2018-06-22T02:29:19.112Z,65.93
2018-06-22T02:29:59.690Z,65.93
2018-06-22T02:30:40.233Z,66.22
2018-06-22T02:31:20.833Z,66.41
2018-06-22T02:32:01.390Z,66.03
2018-06-22T02:32:41.956Z,65.84
2018-06-22T02:33:22.523Z,66.03
2018-06-22T02:34:03.082Z,66.31
2018-06-22T02:34:43.633Z,66.13
2018-06-22T02:35:24.194Z,66.41
2018-06-22T02:36:04.739Z,66.22
2018-06-22T02:36:45.288Z,66.13
2018-06-22T02:37:25.837Z,66.41
2018-06-22T02:38:06.399Z,66.22
2018-06-22T02:38:46.944Z,66.03
2018-06-22T02:39:27.490Z,65.93
2018-06-22T02:40:08.046Z,66.03
2018-06-22T02:40:48.601Z,66.22
2018-06-22T02:41:29.160Z,65.93
2018-06-22T02:42:09.698Z,65.93
2018-06-22T02:42:50.247Z,65.93
2018-06-22T02:43:30.808Z,66.13
2018-06-22T02:44:11.354Z,65.84
2018-06-22T02:44:51.907Z,66.22
2018-06-22T02:45:32.489Z,65.84
2018-06-22T02:46:13.049Z,65.93
2018-06-22T02:46:53.613Z,65.74
2018-06-22T02:47:34.174Z,66.22
2018-06-22T02:48:14.735Z,66.03
2018-06-22T02:48:55.281Z,66.22
2018-06-22T02:49:35.990Z,66.41
2018-06-22T02:50:16.407Z,66.41
2018-06-22T02:50:56.977Z,65.74
2018-06-22T02:51:37.533Z,65.74
2018-06-22T02:52:18.070Z,65.36
2018-06-22T02:52:58.615Z,65.93
2018-06-22T02:53:39.158Z,66.22
2018-06-22T02:54:19.728Z,66.03
2018-06-22T02:55:00.289Z,66.31
2018-06-22T02:55:40.857Z,65.45
2018-06-22T02:56:21.416Z,65.36
2018-06-22T02:57:01.994Z,65.84
2018-06-22T02:57:42.552Z,66.31
2018-06-22T02:58:23.101Z,65.84
2018-06-22T02:59:03.659Z,65.93
2018-06-22T02:59:44.238Z,65.93
2018-06-22T03:00:24.763Z,65.93
2018-06-22T03:01:05.322Z,66.13
2018-06-22T03:01:45.906Z,66.22
2018-06-22T03:02:26.540Z,66.22
2018-06-22T03:03:07.091Z,66.13
2018-06-22T03:03:47.636Z,66.13
2018-06-22T03:04:28.189Z,66.22
2018-06-22T03:05:08.776Z,65.84
2018-06-22T03:05:49.334Z,66.31
2018-06-22T03:06:29.898Z,66.31
2018-06-22T03:07:10.453Z,66.13
2018-06-22T03:07:51.034Z,65.74
2018-06-22T03:08:31.588Z,65.45
2018-06-22T03:09:12.123Z,65.64
2018-06-22T03:09:52.682Z,65.74
2018-06-22T03:10:33.261Z,65.74
2018-06-22T03:11:13.838Z,65.93
2018-06-22T03:11:54.405Z,65.74
2018-06-22T03:12:34.982Z,65.55
2018-06-22T03:13:15.538Z,65.64
2018-06-22T03:13:56.191Z,65.07
2018-06-22T03:14:36.732Z,65.64
2018-06-22T03:15:17.269Z,65.26
2018-06-22T03:15:57.815Z,64.78
2018-06-22T03:16:38.373Z,64.59
2018-06-22T03:17:18.940Z,64.88
2018-06-22T03:17:59.492Z,64.5
2018-06-22T03:18:40.056Z,64.88
2018-06-22T03:19:20.621Z,65.17
2018-06-22T03:20:01.187Z,65.64
2018-06-22T03:20:41.711Z,66.31
2018-06-22T03:21:22.252Z,66.22
2018-06-22T03:22:02.867Z,65.84
2018-06-22T03:22:43.435Z,65.36
2018-06-22T03:23:23.987Z,65.84
2018-06-22T03:24:04.545Z,65.84
2018-06-22T03:24:45.121Z,65.93
2018-06-22T03:25:25.697Z,65.64
2018-06-22T03:26:06.265Z,66.13
2018-06-22T03:26:46.842Z,65.93
2018-06-22T03:27:27.410Z,66.22
2018-06-22T03:28:08.002Z,65.74
2018-06-22T03:28:48.605Z,65.36
2018-06-22T03:29:29.169Z,65.17
2018-06-22T03:30:09.710Z,64.98
2018-06-22T03:30:50.265Z,65.17
2018-06-22T03:31:30.835Z,65.64
2018-06-22T03:32:11.459Z,65.45
2018-06-22T03:32:51.939Z,65.84
2018-06-22T03:33:32.572Z,65.93
2018-06-22T03:34:13.133Z,65.55
2018-06-22T03:34:53.677Z,64.98
2018-06-22T03:35:34.237Z,64.98
2018-06-22T03:36:14.769Z,65.07
2018-06-22T03:36:55.322Z,65.45
2018-06-22T03:37:38.671Z,65.07
2018-06-22T03:39:26.651Z,65.26
2018-06-22T03:40:07.208Z,65.17
2018-06-22T03:40:47.759Z,64.22
2018-06-22T03:41:28.327Z,64.69
2018-06-22T03:42:08.860Z,64.59
2018-06-22T03:42:49.444Z,64.88
2018-06-22T03:43:30.059Z,65.36
2018-06-22T03:44:10.621Z,65.07
2018-06-22T03:44:51.181Z,65.74
2018-06-22T03:45:31.750Z,65.84
2018-06-22T03:46:12.298Z,65.84
2018-06-22T03:46:52.895Z,65.93
2018-06-22T03:47:33.458Z,65.55
2018-06-22T03:48:14.027Z,65.36
2018-06-22T03:48:54.569Z,65.64
2018-06-22T03:49:35.126Z,66.03
2018-06-22T03:50:15.703Z,65.93
2018-06-22T03:50:56.246Z,66.22
2018-06-22T03:51:36.789Z,65.84
2018-06-22T03:52:17.453Z,65.84
2018-06-22T03:52:58.049Z,65.93
2018-06-22T03:53:38.637Z,65.84
2018-06-22T03:54:19.196Z,65.45
2018-06-22T03:54:59.748Z,65.07
2018-06-22T03:55:40.355Z,65.17
2018-06-22T03:56:20.918Z,65.64
2018-06-22T03:57:01.497Z,65.07
2018-06-22T03:57:42.030Z,65.55
2018-06-22T03:58:22.577Z,65.84
2018-06-22T03:59:03.145Z,66.22
2018-06-22T03:59:43.714Z,65.93
2018-06-22T04:00:24.247Z,65.45
2018-06-22T04:01:04.790Z,65.36
2018-06-22T04:01:45.352Z,64.69
2018-06-22T04:02:25.903Z,65.26
2018-06-22T04:03:06.472Z,65.64
2018-06-22T04:03:47.035Z,65.93
2018-06-22T04:04:27.585Z,65.93
2018-06-22T04:05:08.161Z,65.93
2018-06-22T04:05:48.723Z,65.74
2018-06-22T04:06:29.291Z,65.55
2018-06-22T04:07:09.849Z,65.64
2018-06-22T04:07:50.441Z,65.93
2018-06-22T04:08:30.952Z,65.84
2018-06-22T04:09:11.518Z,65.64
2018-06-22T04:09:52.065Z,65.55
2018-06-22T04:10:32.661Z,64.98
2018-06-22T04:11:13.170Z,65.17
2018-06-22T04:11:53.717Z,64.98
2018-06-22T04:12:34.323Z,65.74
2018-06-22T04:13:14.906Z,65.26
2018-06-22T04:13:55.472Z,65.26
2018-06-22T04:14:35.991Z,65.07
2018-06-22T04:15:16.543Z,65.17
2018-06-22T04:15:57.107Z,65.36
2018-06-22T04:16:37.689Z,65.74
2018-06-22T04:17:18.246Z,66.31
2018-06-22T04:17:58.786Z,65.93
2018-06-22T04:18:39.340Z,66.31
2018-06-22T04:19:19.873Z,66.13
2018-06-22T04:20:00.421Z,66.31
2018-06-22T04:20:40.987Z,66.13
2018-06-22T04:21:21.534Z,65.84
2018-06-22T04:22:02.088Z,65.84
2018-06-22T04:22:42.664Z,65.93
2018-06-22T04:23:23.234Z,65.74
2018-06-22T04:24:03.796Z,65.74
2018-06-22T04:24:44.367Z,66.6
2018-06-22T04:25:24.934Z,66.22
2018-06-22T04:26:05.482Z,66.22
2018-06-22T04:26:46.046Z,66.6
2018-06-22T04:27:26.609Z,66.41
2018-06-22T04:28:07.164Z,66.5
2018-06-22T04:28:47.721Z,66.5
2018-06-22T04:29:28.342Z,66.5
2018-06-22T04:30:08.870Z,66.6
2018-06-22T04:30:49.431Z,66.41
2018-06-22T04:31:29.991Z,66.03
2018-06-22T04:32:10.527Z,66.22
2018-06-22T04:32:51.079Z,65.74
2018-06-22T04:33:31.635Z,65.84
2018-06-22T04:34:12.182Z,65.84
2018-06-22T04:34:52.757Z,66.03
2018-06-22T04:35:33.303Z,65.84
2018-06-22T04:36:13.885Z,66.22
2018-06-22T04:36:54.480Z,66.41
2018-06-22T04:37:35.042Z,65.93
2018-06-22T04:38:15.595Z,65.74
2018-06-22T04:38:56.158Z,65.45
2018-06-22T04:39:36.720Z,65.07
2018-06-22T04:40:17.275Z,65.93
2018-06-22T04:40:57.839Z,65.87
2018-06-22T04:41:38.400Z,66.22
2018-06-22T04:42:18.996Z,65.84
2018-06-22T04:42:59.597Z,66.31
2018-06-22T04:43:40.159Z,66.44
2018-06-22T04:44:20.726Z,66.35
2018-06-22T04:45:01.293Z,65.84
2018-06-22T04:45:41.842Z,64.98
2018-06-22T04:46:22.401Z,64.91
2018-06-22T04:47:02.946Z,64.78
2018-06-22T04:47:43.570Z,64.78
2018-06-22T04:48:24.046Z,64.88
2018-06-22T04:49:04.600Z,64.78
2018-06-22T04:49:45.154Z,65.55
2018-06-22T04:50:25.719Z,65.93
2018-06-22T04:51:06.309Z,65.84
2018-06-22T04:51:46.861Z,65.74
2018-06-22T04:52:27.420Z,65.93
2018-06-22T04:53:07.988Z,66.03
2018-06-22T04:53:48.589Z,65.93
2018-06-22T04:54:29.407Z,66.22
2018-06-22T04:55:09.970Z,65.87
2018-06-22T04:55:50.518Z,67.49
2018-06-22T04:56:31.070Z,68.16
2018-06-22T04:57:11.632Z,67.59
2018-06-22T04:57:52.205Z,66.63
2018-06-22T04:58:32.849Z,65.87
2018-06-22T04:59:13.432Z,65.11
2018-06-22T04:59:54.012Z,64.91
2018-06-22T05:00:34.572Z,65.97
2018-06-22T05:01:15.142Z,66.54
2018-06-22T05:01:55.703Z,65.77
2018-06-22T05:02:36.258Z,66.28
2018-06-22T05:03:16.814Z,64.85
2018-06-22T05:03:57.388Z,65.04
2018-06-22T05:04:37.951Z,64.37
2018-06-22T05:05:18.507Z,63.89
2018-06-22T05:05:59.065Z,63.89
2018-06-22T05:06:39.611Z,64.28
2018-06-22T05:07:20.177Z,64.75
2018-06-22T05:08:00.744Z,64.85
2018-06-22T05:08:41.309Z,64.85
2018-06-22T05:09:21.980Z,64.75
2018-06-22T05:10:02.427Z,64.66
2018-06-22T05:10:43.065Z,64.88
2018-06-22T05:11:23.559Z,64.69
2018-06-22T05:12:04.131Z,64.4
2018-06-22T05:12:44.693Z,64.88
2018-06-22T05:13:25.237Z,64.69
2018-06-22T05:14:05.821Z,64.88
2018-06-22T05:14:46.367Z,64.4
2018-06-22T05:15:26.922Z,63.64
2018-06-22T05:16:07.468Z,63.48
2018-06-22T05:16:48.036Z,62.77
2018-06-22T05:17:28.585Z,61.15
2018-06-22T05:18:09.161Z,60.96
2018-06-22T05:18:49.721Z,61.82
2018-06-22T05:19:30.292Z,62.49
2018-06-22T05:20:10.994Z,62.59
2018-06-22T05:20:51.552Z,63.16
2018-06-22T05:21:32.129Z,63.06
2018-06-22T05:22:12.706Z,63.1
2018-06-22T05:22:53.279Z,63.29
2018-06-22T05:23:33.854Z,62.62
2018-06-22T05:24:14.396Z,62.52
2018-06-22T05:24:54.970Z,62.14
2018-06-22T05:25:35.499Z,62.2
2018-06-22T05:26:16.031Z,62.23
2018-06-22T05:26:56.581Z,63
2018-06-22T05:27:37.125Z,63.39
2018-06-22T05:28:17.690Z,62.77
2018-06-22T05:28:58.260Z,62.9
2018-06-22T05:29:38.814Z,62.33
2018-06-22T05:30:19.391Z,62.43
2018-06-22T05:30:59.960Z,63.29
2018-06-22T05:31:40.514Z,62.52
2018-06-22T05:32:21.071Z,62.33
2018-06-22T05:33:01.648Z,62.33
2018-06-22T05:33:42.255Z,62.43
2018-06-22T05:34:22.813Z,61.76
2018-06-22T05:35:03.374Z,61.85
2018-06-22T05:35:43.963Z,62.43
2018-06-22T05:36:24.495Z,62.43
2018-06-22T05:37:05.059Z,62.23
2018-06-22T05:37:45.611Z,61.47
2018-06-22T05:38:26.203Z,61.66
2018-06-22T05:39:06.752Z,62.04
2018-06-22T05:39:47.320Z,62.33
2018-06-22T05:40:27.904Z,62.43
2018-06-22T05:41:08.448Z,62.33
2018-06-22T05:41:49.008Z,61.18
2018-06-22T05:42:29.562Z,60.41
2018-06-22T05:43:10.123Z,59.45
2018-06-22T05:43:50.683Z,59.65
2018-06-22T05:44:31.261Z,59.36
2018-06-22T05:45:11.813Z,59.84
2018-06-22T05:45:52.364Z,59.94
2018-06-22T05:46:32.910Z,60.32
2018-06-22T05:47:13.479Z,60.13
2018-06-22T05:47:54.022Z,60.03
2018-06-22T05:48:34.578Z,59.62
2018-06-22T05:49:15.142Z,59.91
2018-06-22T05:49:55.684Z,61.05
2018-06-22T05:50:36.284Z,61.63
2018-06-22T05:51:16.836Z,62.3
2018-06-22T05:51:57.395Z,61.44
2018-06-22T05:52:38.007Z,61.25
2018-06-22T05:53:18.556Z,62.04
2018-06-22T05:53:59.099Z,62.04
2018-06-22T05:54:39.682Z,61.18
2018-06-22T05:55:20.240Z,59.94
2018-06-22T05:56:00.803Z,60.22
2018-06-22T05:56:41.385Z,60.89
2018-06-22T05:57:21.904Z,61.08
2018-06-22T05:58:02.492Z,62.33
2018-06-22T05:58:43.041Z,62.81
2018-06-22T05:59:23.606Z,62.43
2018-06-22T06:00:04.164Z,62.14
2018-06-22T06:00:44.722Z,61.02
2018-06-22T06:01:25.288Z,59.94
2018-06-22T06:02:05.839Z,59.3
2018-06-22T06:02:46.376Z,58.4
2018-06-22T06:03:26.955Z,58.12
2018-06-22T06:04:07.494Z,58.4
2018-06-22T06:04:48.056Z,59.08
2018-06-22T06:05:28.636Z,60.03
2018-06-22T06:06:09.183Z,60.03
2018-06-22T06:06:49.742Z,60.22
2018-06-22T06:07:30.311Z,60.32
2018-06-22T06:08:10.867Z,59.17
2018-06-22T06:08:51.492Z,59.17
2018-06-22T06:09:32.073Z,59.08
2018-06-22T06:10:12.644Z,59.17
2018-06-22T06:10:53.194Z,59.36
2018-06-22T06:11:33.758Z,58.88
2018-06-22T06:12:14.331Z,59.65
2018-06-22T06:12:54.894Z,59.94
2018-06-22T06:13:35.456Z,60.8
2018-06-22T06:14:16.030Z,61.28
2018-06-22T06:14:56.577Z,60.58
2018-06-22T06:15:37.152Z,60.29
2018-06-22T06:16:17.811Z,60.1
2018-06-22T06:16:58.271Z,60.38
2018-06-22T06:17:38.822Z,60.19
2018-06-22T06:18:19.393Z,59.81
2018-06-22T06:18:59.971Z,59.81
2018-06-22T06:19:40.562Z,59.52
2018-06-22T06:20:21.140Z,60.19
2018-06-22T06:21:01.705Z,60.77
2018-06-22T06:21:42.270Z,61.34
2018-06-22T06:22:22.904Z,61.05
2018-06-22T06:23:03.465Z,60.86
2018-06-22T06:23:44.027Z,60.96
2018-06-22T06:24:24.579Z,61.15
2018-06-22T06:25:05.134Z,60.96
2018-06-22T06:25:45.702Z,61.25
2018-06-22T06:26:26.270Z,61.15
2018-06-22T06:27:06.834Z,61.05
2018-06-22T06:27:47.396Z,60.86
2018-06-22T06:28:27.981Z,60.19
2018-06-22T06:29:08.555Z,60.58
2018-06-22T06:29:49.108Z,60.38
2018-06-22T06:30:29.672Z,60.38
2018-06-22T06:31:10.237Z,60.38
2018-06-22T06:31:50.778Z,60.38
2018-06-22T06:32:31.313Z,61.15
2018-06-22T06:33:11.923Z,62.49
2018-06-22T06:33:52.493Z,62.3
2018-06-22T06:34:33.142Z,61.54
2018-06-22T06:35:13.670Z,61.34
2018-06-22T06:35:54.246Z,61.34
2018-06-22T06:36:34.790Z,61.72
2018-06-22T06:37:15.336Z,61.05
2018-06-22T06:37:55.885Z,61.25
2018-06-22T06:38:36.472Z,61.34
2018-06-22T06:39:17.023Z,61.15
2018-06-22T06:39:57.560Z,61.05
2018-06-22T06:40:38.115Z,61.25
2018-06-22T06:41:18.675Z,61.34
2018-06-22T06:41:59.230Z,60.96
2018-06-22T06:42:39.748Z,60.96
2018-06-22T06:43:20.298Z,61.15
2018-06-22T06:44:00.861Z,61.05
2018-06-22T06:44:41.420Z,62.11
2018-06-22T06:45:21.963Z,62.3
2018-06-22T06:46:02.539Z,62.04
2018-06-22T06:46:43.078Z,61.28
2018-06-22T06:47:23.642Z,60.51
2018-06-22T06:48:04.195Z,60.32
2018-06-22T06:48:44.845Z,61.57
2018-06-22T06:49:25.402Z,61.85
2018-06-22T06:50:05.952Z,61.66
2018-06-22T06:50:46.502Z,62.04
2018-06-22T06:51:27.054Z,61.47
2018-06-22T06:52:07.618Z,60.51
2018-06-22T06:52:48.213Z,61.08
2018-06-22T06:53:28.764Z,60.89
2018-06-22T06:54:09.444Z,60.99
2018-06-22T06:54:49.997Z,60.99
2018-06-22T06:55:30.559Z,61.28
2018-06-22T06:56:11.127Z,61.28
2018-06-22T06:56:51.731Z,61.37
2018-06-22T06:57:32.289Z,61.94
2018-06-22T06:58:12.852Z,61.28
2018-06-22T06:58:53.402Z,61.08
2018-06-22T06:59:33.967Z,60.8
2018-06-22T07:00:14.514Z,59.65
2018-06-22T07:00:55.078Z,59.36
2018-06-22T07:01:35.643Z,59.75
2018-06-22T07:02:16.212Z,58.98
2018-06-22T07:02:56.789Z,58.69
2018-06-22T07:03:37.354Z,59.27
2018-06-22T07:04:17.896Z,59.94
2018-06-22T07:04:58.439Z,60.41
2018-06-22T07:05:39.006Z,60.32
2018-06-22T07:06:19.602Z,59.75
2018-06-22T07:07:00.167Z,59.75
2018-06-22T07:07:40.855Z,58.79
2018-06-22T07:08:21.372Z,59.65
2018-06-22T07:09:01.917Z,59.17
2018-06-22T07:09:42.476Z,58.59
2018-06-22T07:10:23.054Z,59.55
2018-06-22T07:11:03.616Z,59.27
2018-06-22T07:11:44.191Z,59.08
2018-06-22T07:12:24.755Z,58.88
2018-06-22T07:13:05.313Z,58.98
2018-06-22T07:13:45.879Z,58.79
2018-06-22T07:14:26.502Z,58.69
2018-06-22T07:15:06.989Z,58.5
2018-06-22T07:15:47.548Z,58.5
2018-06-22T07:16:28.110Z,58.86
2018-06-22T07:17:08.726Z,58.98
2018-06-22T07:17:49.305Z,59.17
2018-06-22T07:18:29.846Z,59.84
2018-06-22T07:19:10.404Z,59.81
2018-06-22T07:19:50.974Z,60.51
2018-06-22T07:20:31.520Z,60.51
2018-06-22T07:21:12.110Z,60.22
2018-06-22T07:21:52.692Z,60.8
2018-06-22T07:22:33.229Z,61.18
2018-06-22T07:23:13.811Z,61.94
2018-06-22T07:23:54.417Z,62.04
2018-06-22T07:24:35.010Z,62.33
2018-06-22T07:25:15.578Z,63
2018-06-22T07:25:56.162Z,63.39
2018-06-22T07:26:36.714Z,63.67
2018-06-22T07:27:17.280Z,64.31
2018-06-22T07:27:57.885Z,64.02
2018-06-22T07:28:38.465Z,63.86
2018-06-22T07:29:19.078Z,64.63
2018-06-22T07:29:59.587Z,64.25
2018-06-22T07:30:40.176Z,64.15
2018-06-22T07:31:20.676Z,64.82
2018-06-22T07:32:01.240Z,64.63
2018-06-22T07:32:41.801Z,64.92
2018-06-22T07:33:22.381Z,64.72
2018-06-22T07:34:02.952Z,64.25
2018-06-22T07:34:43.524Z,64.34
2018-06-22T07:35:24.092Z,64.05
2018-06-22T07:36:04.720Z,63.57
2018-06-22T07:36:45.237Z,63.29
2018-06-22T07:37:25.813Z,63.39
2018-06-22T07:38:06.405Z,63.19
2018-06-22T07:38:47.398Z,63.39
2018-06-22T07:39:27.984Z,62.81
2018-06-22T07:40:08.549Z,62.62
2018-06-22T07:40:49.110Z,62.52
2018-06-22T07:41:29.759Z,62.52
2018-06-22T07:42:10.476Z,61.85
2018-06-22T07:42:51.055Z,62.14
2018-06-22T07:43:31.631Z,62.23
2018-06-22T07:44:12.207Z,62.04
2018-06-22T07:44:52.800Z,62.33
2018-06-22T07:45:33.487Z,62.62
2018-06-22T07:46:14.021Z,62.33
2018-06-22T07:46:54.580Z,62.43
2018-06-22T07:47:35.178Z,62.52
2018-06-22T07:48:15.748Z,62.9
2018-06-22T07:48:56.316Z,62.33
2018-06-22T07:49:36.877Z,62.36
2018-06-22T07:50:17.444Z,62.07
2018-06-22T07:50:58.009Z,61.6
2018-06-22T07:51:38.557Z,61.69
2018-06-22T07:52:19.108Z,61.21
2018-06-22T07:52:59.656Z,61.98
2018-06-22T07:53:40.219Z,61.79
2018-06-22T07:54:20.744Z,61.69
2018-06-22T07:55:01.298Z,61.76
2018-06-22T07:55:41.875Z,61.94
2018-06-22T07:56:22.449Z,61.76
2018-06-22T07:57:03.015Z,62.52
2018-06-22T07:57:43.594Z,62.43
2018-06-22T07:58:24.144Z,62.07
2018-06-22T07:59:04.688Z,62.26
2018-06-22T07:59:45.244Z,61.69
2018-06-22T08:00:25.811Z,61.69
2018-06-22T08:01:06.342Z,61.98
2018-06-22T08:01:46.910Z,62.55
2018-06-22T08:02:27.473Z,62.36
2018-06-22T08:03:08.046Z,62.36
2018-06-22T08:03:48.612Z,62.26
2018-06-22T08:04:29.175Z,62.65
2018-06-22T08:05:09.744Z,62.36
2018-06-22T08:05:50.287Z,62.07
2018-06-22T08:06:30.841Z,61.31
2018-06-22T08:07:11.389Z,61.69
2018-06-22T08:07:52.057Z,61.21
2018-06-22T08:08:32.607Z,61.11
2018-06-22T08:09:13.165Z,61.02
2018-06-22T08:09:53.739Z,60.35
2018-06-22T08:10:34.292Z,60.64
2018-06-22T08:11:14.855Z,60.25
2018-06-22T08:11:55.439Z,60.25
2018-06-22T08:12:36.183Z,60.64
2018-06-22T08:13:16.780Z,60.83
2018-06-22T08:13:57.329Z,60.64
2018-06-22T08:14:37.873Z,59.97
2018-06-22T08:15:18.538Z,59.77
2018-06-22T08:15:59.068Z,59.3
2018-06-22T08:16:39.636Z,59.68
2018-06-22T08:17:20.180Z,59.11
2018-06-22T08:18:00.732Z,59.39
2018-06-22T08:18:41.282Z,59.68
2018-06-22T08:19:21.891Z,58.62
2018-06-22T08:20:02.446Z,59.3
2018-06-22T08:20:43.007Z,60.06
2018-06-22T08:21:23.683Z,59.97
2018-06-22T08:22:04.248Z,59.58
2018-06-22T08:22:44.789Z,59.58
2018-06-22T08:23:25.330Z,60.44
2018-06-22T08:24:05.879Z,60.54
2018-06-22T08:24:46.446Z,59.68
2018-06-22T08:25:27.128Z,59.48
2018-06-22T08:26:07.706Z,59.68
2018-06-22T08:26:48.291Z,59.3
2018-06-22T08:27:28.858Z,58.34
2018-06-22T08:28:09.444Z,58.53
2018-06-22T08:28:50.023Z,58.15
2018-06-22T08:29:30.606Z,57.76
2018-06-22T08:30:11.168Z,57.95
2018-06-22T08:30:51.728Z,57.95
2018-06-22T08:31:32.491Z,58.59
2018-06-22T08:32:13.057Z,58.4
2018-06-22T08:32:53.610Z,58.31
2018-06-22T08:33:34.184Z,58.59
2018-06-22T08:34:14.749Z,58.59
2018-06-22T08:34:55.372Z,58.98
2018-06-22T08:35:36.024Z,59.65
2018-06-22T08:36:16.631Z,60.22
2018-06-22T08:36:57.171Z,60.44
2018-06-22T08:37:37.745Z,60.44
2018-06-22T08:38:18.323Z,58.91
2018-06-22T08:38:58.898Z,59.11
2018-06-22T08:39:39.485Z,59.48
2018-06-22T08:40:20.056Z,59.87
2018-06-22T08:41:00.635Z,59.11
2018-06-22T08:41:41.364Z,58.05
2018-06-22T08:42:21.869Z,58.44
2018-06-22T08:43:02.444Z,58.72
2018-06-22T08:43:42.988Z,59.01
2018-06-22T08:44:23.574Z,59.3
2018-06-22T08:45:04.129Z,59.2